createdAt,value
2023-05-15T00:00:44.324Z,5.87
2023-05-15T00:03:46.847Z,5.93
2023-05-15T00:06:49.445Z,6.03
2023-05-15T00:09:51.910Z,5.93
2023-05-15T00:12:56.049Z,4.88
2023-05-15T00:15:58.472Z,5.47
2023-05-15T00:19:01.090Z,5.37
2023-05-15T00:22:03.700Z,6.10
2023-05-15T00:25:06.736Z,5.60
2023-05-15T00:28:09.256Z,5.38
2023-05-15T00:31:13.176Z,5.67
2023-05-15T00:34:15.625Z,5.17
2023-05-15T00:37:18.059Z,5.43
2023-05-15T00:40:24.267Z,4.93
2023-05-15T00:43:28.716Z,5.38
2023-05-15T00:46:32.734Z,5.33
2023-05-15T00:49:37.450Z,5.50
2023-05-15T00:52:39.853Z,5.75
2023-05-15T00:55:43.167Z,6.20
2023-05-15T00:58:50.700Z,6.30
2023-05-15T01:01:55.452Z,6.00
2023-05-15T01:04:57.978Z,6.87
2023-05-15T01:08:21.379Z,6.28
2023-05-15T01:11:27.619Z,5.93
2023-05-15T01:14:30.074Z,6.05
2023-05-15T01:17:32.541Z,6.03
2023-05-15T01:21:01.964Z,6.40
2023-05-15T01:24:30.117Z,6.60
2023-05-15T01:27:32.474Z,6.65
2023-05-15T01:30:38.665Z,6.15
2023-05-15T01:33:45.847Z,6.63
2023-05-15T01:36:53.447Z,6.30
2023-05-15T01:40:00.984Z,7.13
2023-05-15T01:43:09.522Z,6.85
2023-05-15T01:46:19.385Z,6.07
2023-05-15T01:49:27.362Z,6.70
2023-05-15T01:52:33.942Z,6.50
2023-05-15T01:55:38.810Z,6.07
2023-05-15T01:58:42.877Z,6.82
2023-05-15T02:01:46.780Z,7.15
2023-05-15T02:04:51.685Z,6.90
2023-05-15T02:07:56.083Z,6.60
2023-05-15T02:11:03.269Z,6.75
2023-05-15T02:14:06.110Z,6.68
2023-05-15T02:17:08.684Z,6.68
2023-05-15T02:20:11.526Z,7.07
2023-05-15T02:23:13.924Z,6.87
2023-05-15T02:26:49.025Z,7.07
2023-05-15T02:30:21.599Z,6.93
2023-05-15T02:33:41.898Z,7.13
2023-05-15T02:36:48.540Z,7.70
2023-05-15T02:39:54.593Z,7.20
2023-05-15T02:42:57.841Z,7.65
2023-05-15T02:46:00.712Z,7.95
2023-05-15T02:49:04.070Z,7.85
2023-05-15T02:52:07.510Z,8.70
2023-05-15T02:55:10.333Z,8.67
2023-05-15T02:58:12.965Z,9.00
2023-05-15T03:01:15.426Z,8.50
2023-05-15T03:04:18.079Z,8.15
2023-05-15T03:07:20.761Z,9.00
2023-05-15T03:10:24.282Z,8.37
2023-05-15T03:13:26.779Z,8.90
2023-05-15T03:16:29.520Z,8.60
2023-05-15T03:19:32.115Z,8.23
2023-05-15T03:22:34.767Z,9.07
2023-05-15T03:25:37.254Z,8.00
2023-05-15T03:28:41.647Z,8.60
2023-05-15T03:31:44.712Z,8.27
2023-05-15T03:34:47.263Z,8.57
2023-05-15T03:37:50.019Z,9.03
2023-05-15T03:40:52.537Z,8.40
2023-05-15T03:43:54.964Z,8.27
2023-05-15T03:46:57.527Z,8.38
2023-05-15T03:50:00.149Z,8.75
2023-05-15T03:53:02.819Z,8.80
2023-05-15T03:56:06.011Z,9.93
2023-05-15T03:59:08.588Z,8.57
2023-05-15T04:02:11.447Z,8.50
2023-05-15T04:05:13.906Z,8.43
2023-05-15T04:08:16.755Z,9.00
2023-05-15T04:11:19.562Z,9.17
2023-05-15T04:14:21.998Z,8.73
2023-05-15T04:17:24.442Z,9.98
2023-05-15T04:20:26.961Z,8.13
2023-05-15T04:23:29.445Z,8.23
2023-05-15T04:26:32.007Z,9.17
2023-05-15T04:29:34.560Z,9.15
2023-05-15T04:32:38.588Z,8.70
2023-05-15T04:35:42.765Z,8.75
2023-05-15T04:38:45.318Z,9.47
2023-05-15T04:41:47.832Z,8.10
2023-05-15T04:44:51.112Z,8.68
2023-05-15T04:47:53.682Z,8.52
2023-05-15T04:50:56.242Z,8.98
2023-05-15T04:53:58.628Z,9.30
2023-05-15T04:57:01.408Z,8.77
2023-05-15T05:00:11.969Z,8.90
2023-05-15T05:03:14.530Z,8.95
2023-05-15T05:06:17.218Z,9.25
2023-05-15T05:09:20.134Z,9.13
2023-05-15T05:12:22.583Z,9.17
2023-05-15T05:15:25.472Z,9.07
2023-05-15T05:18:28.058Z,9.57
2023-05-15T05:21:31.015Z,9.02
2023-05-15T05:24:35.879Z,9.20
2023-05-15T05:27:38.604Z,8.87
2023-05-15T05:30:45.451Z,8.68
2023-05-15T05:33:49.853Z,9.00
2023-05-15T05:36:52.527Z,8.88
2023-05-15T05:39:55.022Z,8.90
2023-05-15T05:43:02.085Z,8.17
2023-05-15T05:46:04.667Z,8.90
2023-05-15T05:49:07.144Z,8.60
2023-05-15T05:52:11.359Z,8.77
2023-05-15T05:55:14.393Z,8.57
2023-05-15T06:01:27.770Z,7.20
2023-05-15T06:04:34.128Z,7.65
2023-05-15T06:07:36.905Z,7.90
2023-05-15T06:10:40.041Z,7.80
2023-05-15T06:13:43.492Z,7.93
2023-05-15T06:16:46.151Z,8.13
2023-05-15T06:19:49.430Z,8.27
2023-05-15T06:22:51.871Z,8.25
2023-05-15T06:25:54.366Z,8.37
2023-05-15T06:28:56.815Z,7.20
2023-05-15T06:31:59.280Z,7.30
2023-05-15T06:35:02.392Z,6.93
2023-05-15T06:38:04.922Z,6.90
2023-05-15T06:41:07.421Z,6.40
2023-05-15T06:44:09.858Z,6.90
2023-05-15T06:47:12.430Z,6.05
2023-05-15T06:50:15.007Z,6.78
2023-05-15T06:53:18.705Z,6.20
2023-05-15T06:56:21.878Z,6.47
2023-05-15T06:59:24.400Z,5.80
2023-05-15T07:02:26.925Z,7.20
2023-05-15T07:05:29.498Z,6.15
2023-05-15T07:08:32.136Z,5.78
2023-05-15T07:11:37.425Z,5.77
2023-05-15T07:14:39.955Z,5.03
2023-05-15T07:17:42.482Z,4.57
2023-05-15T07:20:45.254Z,5.63
2023-05-15T07:23:47.761Z,5.00
2023-05-15T07:26:58.251Z,4.00
2023-05-15T07:30:04.184Z,4.80
2023-05-15T07:33:06.936Z,5.40
2023-05-15T07:36:09.684Z,4.95
2023-05-15T07:39:13.431Z,5.18
2023-05-15T07:42:15.932Z,4.77
2023-05-15T07:45:18.655Z,4.70
2023-05-15T07:48:21.206Z,4.38
2023-05-15T07:51:23.877Z,4.40
2023-05-15T07:54:26.963Z,4.32
2023-05-15T07:57:29.950Z,4.37
2023-05-15T08:00:32.517Z,4.10
2023-05-15T08:03:35.006Z,4.50
2023-05-15T08:06:38.607Z,3.80
2023-05-15T08:09:41.428Z,3.60
2023-05-15T08:12:46.617Z,4.07
2023-05-15T08:15:49.088Z,4.53
2023-05-15T08:18:53.634Z,4.65
2023-05-15T08:21:56.261Z,4.93
2023-05-15T08:25:00.159Z,4.55
2023-05-15T08:28:02.996Z,4.70
2023-05-15T08:31:05.364Z,4.40
2023-05-15T08:34:07.924Z,4.88
2023-05-15T08:37:10.668Z,4.45
2023-05-15T08:40:13.441Z,4.68
2023-05-15T08:43:18.314Z,4.10
2023-05-15T08:46:21.533Z,4.30
2023-05-15T08:49:32.926Z,4.75
2023-05-15T08:52:36.205Z,4.38
2023-05-15T08:55:38.791Z,4.22
2023-05-15T08:58:42.196Z,4.20
2023-05-15T09:01:45.713Z,4.00
2023-05-15T09:04:48.623Z,4.70
2023-05-15T09:07:53.022Z,3.95
2023-05-15T09:10:56.715Z,4.25
2023-05-15T09:13:59.988Z,3.67
2023-05-15T09:17:02.618Z,3.77
2023-05-15T09:20:06.237Z,3.92
2023-05-15T09:23:26.131Z,4.20
2023-05-15T09:26:28.660Z,3.92
2023-05-15T09:29:32.186Z,3.97
2023-05-15T09:32:35.024Z,3.40
2023-05-15T09:35:40.906Z,4.10
2023-05-15T09:38:43.803Z,3.67
2023-05-15T09:41:46.467Z,4.07
2023-05-15T09:44:49.219Z,4.30
2023-05-15T09:47:52.130Z,4.37
2023-05-15T09:50:55.305Z,3.90
2023-05-15T09:53:59.224Z,3.85
2023-05-15T09:57:14.006Z,3.90
2023-05-15T10:00:19.657Z,4.17
2023-05-15T10:03:23.497Z,3.70
2023-05-15T10:06:26.292Z,3.70
2023-05-15T10:09:32.417Z,3.58
2023-05-15T10:12:36.646Z,3.67
2023-05-15T10:15:39.870Z,4.00
2023-05-15T10:18:45.182Z,3.40
2023-05-15T10:21:48.248Z,3.00
2023-05-15T10:24:59.673Z,2.10
2023-05-15T10:28:02.571Z,2.20
2023-05-15T10:31:06.079Z,2.27
2023-05-15T10:34:10.416Z,1.80
2023-05-15T10:37:14.587Z,1.75
2023-05-15T10:40:17.892Z,1.98
2023-05-15T10:43:21.470Z,1.70
2023-05-15T10:46:24.738Z,1.70
2023-05-15T10:49:27.738Z,1.37
2023-05-15T10:56:14.875Z,1.33
2023-05-15T10:59:17.540Z,1.70
2023-05-15T11:02:23.367Z,1.40
2023-05-15T11:05:26.501Z,1.30
2023-05-15T11:08:29.089Z,1.25
2023-05-15T11:12:03.962Z,1.20
2023-05-15T11:15:09.475Z,1.20
2023-05-15T11:18:12.734Z,1.20
2023-05-15T11:21:15.237Z,1.40
2023-05-15T11:24:18.373Z,1.20
2023-05-15T11:27:33.730Z,1.00
2023-05-15T11:30:39.946Z,1.27
2023-05-15T11:33:42.613Z,1.10
2023-05-15T11:36:46.214Z,1.03
2023-05-15T11:39:52.298Z,1.00
2023-05-15T11:43:27.061Z,1.00
2023-05-15T11:46:30.455Z,1.23
2023-05-15T11:49:33.014Z,1.00
2023-05-15T11:52:36.200Z,1.00
2023-05-15T11:55:44.545Z,1.10
2023-05-15T11:59:00.500Z,1.30
2023-05-15T12:02:06.110Z,0.90
2023-05-15T12:05:09.626Z,0.90
2023-05-15T12:08:13.408Z,1.20
2023-05-15T12:11:16.240Z,1.00
2023-05-15T12:14:29.435Z,1.00
2023-05-15T12:17:33.280Z,1.00
2023-05-15T12:20:37.389Z,1.23
2023-05-15T12:23:40.018Z,1.00
2023-05-15T12:26:42.717Z,1.05
2023-05-15T12:29:45.901Z,1.20
2023-05-15T12:32:48.975Z,1.10
2023-05-15T12:35:58.931Z,1.43
2023-05-15T12:39:08.060Z,1.10
2023-05-15T12:42:10.813Z,1.00
2023-05-15T12:45:18.454Z,1.30
2023-05-15T12:48:21.815Z,0.90
2023-05-15T12:51:24.338Z,1.17
2023-05-15T12:54:26.868Z,0.97
2023-05-15T12:57:29.994Z,1.27
2023-05-15T13:00:34.673Z,1.00
2023-05-15T13:03:37.392Z,1.00
2023-05-15T13:06:46.605Z,1.10
2023-05-15T13:10:04.767Z,1.17
2023-05-15T13:13:07.414Z,0.90
2023-05-15T13:16:29.810Z,0.85
2023-05-15T13:19:32.637Z,0.90
2023-05-15T13:22:35.235Z,0.87
2023-05-15T13:25:37.886Z,0.87
2023-05-15T13:28:40.467Z,0.80
2023-05-15T13:31:43.160Z,0.75
2023-05-15T13:34:46.899Z,0.73
2023-05-15T13:37:50.041Z,0.70
2023-05-15T13:40:52.771Z,0.77
2023-05-15T13:43:55.223Z,0.82
2023-05-15T13:46:58.387Z,0.80
2023-05-15T13:50:01.207Z,1.17
2023-05-15T13:53:04.182Z,0.90
2023-05-15T13:56:07.363Z,0.87
2023-05-15T13:59:12.033Z,0.70
2023-05-15T14:02:16.031Z,1.00
2023-05-15T14:05:19.158Z,1.10
2023-05-15T14:08:21.809Z,1.00
2023-05-15T14:11:24.461Z,0.80
2023-05-15T14:14:27.017Z,1.20
2023-05-15T14:17:29.877Z,1.00
2023-05-15T14:20:32.337Z,0.95
2023-05-15T14:23:34.763Z,0.83
2023-05-15T14:26:37.345Z,0.70
2023-05-15T14:29:40.027Z,0.63
2023-05-15T14:32:42.669Z,0.60
2023-05-15T14:35:45.165Z,0.77
2023-05-15T14:38:48.860Z,0.80
2023-05-15T14:41:51.307Z,1.17
2023-05-15T14:44:53.842Z,0.82
2023-05-15T14:47:56.413Z,0.70
2023-05-15T14:50:58.891Z,0.80
2023-05-15T14:54:01.326Z,0.50
2023-05-15T14:57:04.065Z,0.70
2023-05-15T15:00:07.352Z,0.68
2023-05-15T15:03:10.951Z,0.70
2023-05-15T15:06:13.552Z,0.82
2023-05-15T15:09:16.013Z,0.87
2023-05-15T15:12:18.524Z,0.80
2023-05-15T15:15:21.569Z,0.90
2023-05-15T15:18:24.976Z,0.90
2023-05-15T15:21:27.574Z,0.80
2023-05-15T15:24:29.983Z,0.70
2023-05-15T15:27:33.253Z,0.70
2023-05-15T15:30:35.961Z,0.82
2023-05-15T15:33:38.440Z,0.93
2023-05-15T15:36:41.557Z,0.90
2023-05-15T15:39:44.070Z,0.77
2023-05-15T15:42:46.521Z,0.70
2023-05-15T15:45:48.918Z,0.77
2023-05-15T15:48:51.342Z,0.90
2023-05-15T15:51:53.923Z,0.90
2023-05-15T15:54:56.406Z,0.90
2023-05-15T15:57:58.818Z,0.90
2023-05-15T16:01:02.968Z,0.82
2023-05-15T16:04:05.413Z,0.90
2023-05-15T16:07:07.954Z,0.75
2023-05-15T16:10:13.355Z,0.80
2023-05-15T16:13:16.164Z,0.90
2023-05-15T16:16:18.807Z,1.10
2023-05-15T16:19:21.667Z,0.88
2023-05-15T16:22:24.116Z,0.90
2023-05-15T16:25:26.478Z,0.90
2023-05-15T16:28:28.924Z,0.90
2023-05-15T16:31:31.982Z,0.90
2023-05-15T16:34:34.409Z,1.00
2023-05-15T16:37:36.886Z,0.90
2023-05-15T16:40:39.437Z,0.77
2023-05-15T16:43:41.993Z,1.00
2023-05-15T16:46:44.446Z,1.10
2023-05-15T16:49:49.212Z,1.00
2023-05-15T16:52:52.719Z,0.73
2023-05-15T16:55:55.153Z,0.80
2023-05-15T16:58:57.578Z,0.87
2023-05-15T17:02:00.837Z,1.00
2023-05-15T17:05:03.873Z,0.98
2023-05-15T17:08:06.399Z,0.88
2023-05-15T17:11:09.839Z,0.83
2023-05-15T17:14:12.278Z,0.77
2023-05-15T17:17:14.685Z,0.80
2023-05-15T17:20:17.712Z,0.77
2023-05-15T17:23:22.856Z,0.80
2023-05-15T17:26:26.200Z,0.63
2023-05-15T17:29:28.637Z,0.70
2023-05-15T17:32:31.200Z,0.60
2023-05-15T17:35:33.845Z,0.60
2023-05-15T17:38:36.387Z,0.50
2023-05-15T17:41:38.798Z,0.60
2023-05-15T17:44:41.360Z,0.60
2023-05-15T17:47:43.967Z,0.70
2023-05-15T17:50:46.712Z,0.60
2023-05-15T17:53:49.114Z,0.60
2023-05-15T17:56:51.628Z,0.60
2023-05-15T17:59:54.127Z,0.70
2023-05-15T18:02:56.597Z,0.60
2023-05-15T18:05:59.388Z,0.50
2023-05-15T18:09:01.970Z,0.60
2023-05-15T18:12:04.545Z,0.70
2023-05-15T18:15:07.536Z,0.77
2023-05-15T18:18:10.297Z,0.93
2023-05-15T18:21:12.827Z,0.77
2023-05-15T18:24:15.406Z,0.60
2023-05-15T18:27:17.844Z,1.10
2023-05-15T18:30:20.463Z,0.80
2023-05-15T18:33:23.016Z,0.90
2023-05-15T18:36:25.967Z,0.80
2023-05-15T18:39:28.754Z,1.00
2023-05-15T18:42:31.379Z,0.90
2023-05-15T18:45:34.816Z,1.00
2023-05-15T18:48:37.269Z,0.80
2023-05-15T18:51:39.749Z,0.95
2023-05-15T18:54:42.266Z,1.00
2023-05-15T18:57:45.546Z,0.80
2023-05-15T19:00:48.045Z,1.03
2023-05-15T19:03:50.600Z,1.10
2023-05-15T19:06:53.210Z,1.10
2023-05-15T19:09:55.963Z,1.30
2023-05-15T19:12:58.740Z,1.73
2023-05-15T19:16:01.216Z,1.77
2023-05-15T19:19:03.900Z,2.22
2023-05-15T19:22:06.393Z,2.60
2023-05-15T19:25:09.325Z,2.25
2023-05-15T19:28:13.035Z,2.63
2023-05-15T19:31:27.828Z,2.10
2023-05-15T19:34:34.055Z,1.40
2023-05-15T19:37:37.108Z,1.40
2023-05-15T19:40:43.952Z,1.20
2023-05-15T19:43:47.121Z,1.50
2023-05-15T19:46:49.884Z,1.40
2023-05-15T19:49:52.464Z,1.45
2023-05-15T19:52:54.923Z,1.08
2023-05-15T19:55:57.388Z,1.38
2023-05-15T19:59:00.625Z,1.20
2023-05-15T20:02:03.342Z,1.50
2023-05-15T20:05:06.251Z,1.20
2023-05-15T20:08:08.836Z,1.30
2023-05-15T20:11:11.332Z,1.40
2023-05-15T20:14:14.882Z,1.33
2023-05-15T20:17:17.634Z,1.37
2023-05-15T20:20:20.193Z,1.60
2023-05-15T20:23:22.850Z,1.30
2023-05-15T20:26:25.330Z,1.25
2023-05-15T20:29:27.738Z,1.27
2023-05-15T20:32:30.669Z,1.10
2023-05-15T20:35:33.152Z,1.10
2023-05-15T20:38:36.033Z,1.23
2023-05-15T20:41:38.445Z,1.13
2023-05-15T20:44:40.944Z,1.30
2023-05-15T20:47:43.761Z,1.40
2023-05-15T20:50:46.322Z,1.33
2023-05-15T20:53:48.764Z,1.30
2023-05-15T20:56:51.174Z,1.40
2023-05-15T20:59:53.537Z,1.50
2023-05-15T21:02:56.099Z,1.40
2023-05-15T21:05:58.687Z,1.10
2023-05-15T21:09:01.098Z,1.20
2023-05-15T21:12:04.196Z,1.70
2023-05-15T21:15:07.473Z,1.73
2023-05-15T21:18:10.175Z,1.40
2023-05-15T21:21:12.728Z,1.50
2023-05-15T21:24:16.748Z,1.65
2023-05-15T21:27:20.184Z,2.00
2023-05-15T21:30:22.616Z,2.00
2023-05-15T21:33:25.017Z,1.80
2023-05-15T21:36:27.404Z,2.00
2023-05-15T21:39:29.780Z,1.98
2023-05-15T21:42:32.324Z,1.95
2023-05-15T21:45:34.926Z,2.13
2023-05-15T21:48:37.421Z,2.37
2023-05-15T21:51:40.031Z,1.60
2023-05-15T21:54:43.910Z,1.63
2023-05-15T21:57:46.474Z,1.50
2023-05-15T22:00:48.909Z,1.80
2023-05-15T22:03:51.512Z,1.73
2023-05-15T22:06:54.084Z,1.90
2023-05-15T22:09:56.746Z,2.00
2023-05-15T22:13:02.614Z,2.30
2023-05-15T22:16:06.438Z,1.90
2023-05-15T22:19:18.529Z,2.20
2023-05-15T22:22:31.241Z,2.20
2023-05-15T22:25:33.720Z,1.77
2023-05-15T22:28:36.142Z,1.70
2023-05-15T22:31:38.677Z,1.80
2023-05-15T22:34:41.113Z,1.83
2023-05-15T22:37:45.393Z,1.90
2023-05-15T22:40:51.673Z,1.90
2023-05-15T22:43:54.875Z,1.70
2023-05-15T22:46:57.329Z,1.80
2023-05-15T22:49:59.910Z,1.67
2023-05-15T22:53:02.687Z,1.73
2023-05-15T22:56:05.414Z,1.70
2023-05-15T22:59:07.889Z,1.90
2023-05-15T23:02:10.475Z,2.00
2023-05-15T23:05:12.894Z,2.20
2023-05-15T23:08:15.387Z,2.35
2023-05-15T23:11:17.866Z,2.25
2023-05-15T23:14:21.762Z,2.10
2023-05-15T23:17:25.812Z,2.10
2023-05-15T23:20:29.477Z,2.40
2023-05-15T23:23:32.383Z,2.40
2023-05-15T23:26:34.752Z,2.40
2023-05-15T23:29:37.222Z,2.50
2023-05-15T23:32:39.695Z,2.53
2023-05-15T23:35:43.281Z,2.70
2023-05-15T23:38:45.695Z,3.30
2023-05-15T23:41:48.165Z,3.50
2023-05-15T23:44:51.526Z,3.78
2023-05-15T23:47:54.031Z,3.30
2023-05-15T23:50:56.557Z,3.67
2023-05-15T23:53:58.970Z,3.80
2023-05-15T23:57:02.663Z,3.70
